sensor_id;sensor_type;location;lat;lon;timestamp;temperature;humidity
72128;DHT22;60000;51.030;7.024;2022-11-20T00:01:31;3.49;78.40
72128;DHT22;60000;51.030;7.024;2022-11-20T00:03:58;3.49;78.40
72128;DHT22;60000;51.030;7.024;2022-11-20T00:06:23;3.48;78.12
72128;DHT22;60000;51.030;7.024;2022-11-20T00:08:49;3.46;78.34
72128;DHT22;60000;51.030;7.024;2022-11-20T00:11:17;3.46;78.38
72128;DHT22;60000;51.030;7.024;2022-11-20T00:13:44;3.46;78.35
72128;DHT22;60000;51.030;7.024;2022-11-20T00:16:11;3.45;78.38
72128;DHT22;60000;51.030;7.024;2022-11-20T00:18:37;3.43;78.47
72128;DHT22;60000;51.030;7.024;2022-11-20T00:21:15;3.48;78.61
72128;DHT22;60000;51.030;7.024;2022-11-20T00:23:41;3.46;78.54
72128;DHT22;60000;51.030;7.024;2022-11-20T00:26:09;3.45;78.16
72128;DHT22;60000;51.030;7.024;2022-11-20T00:28:35;3.42;77.85
72128;DHT22;60000;51.030;7.024;2022-11-20T00:31:06;3.39;77.90
72128;DHT22;60000;51.030;7.024;2022-11-20T00:33:34;3.40;77.91
72128;DHT22;60000;51.030;7.024;2022-11-20T00:36:10;3.38;77.55
72128;DHT22;60000;51.030;7.024;2022-11-20T00:38:36;3.32;77.49
72128;DHT22;60000;51.030;7.024;2022-11-20T00:41:04;3.35;77.58
72128;DHT22;60000;51.030;7.024;2022-11-20T00:43:30;3.35;77.78
72128;DHT22;60000;51.030;7.024;2022-11-20T00:46:03;3.36;78.14
72128;DHT22;60000;51.030;7.024;2022-11-20T00:48:29;3.38;78.03
72128;DHT22;60000;51.030;7.024;2022-11-20T00:50:54;3.36;78.03
72128;DHT22;60000;51.030;7.024;2022-11-20T00:53:20;3.35;77.97
72128;DHT22;60000;51.030;7.024;2022-11-20T00:55:59;3.35;77.98
72128;DHT22;60000;51.030;7.024;2022-11-20T00:58:29;3.34;78.01
72128;DHT22;60000;51.030;7.024;2022-11-20T01:01:08;3.34;77.83
72128;DHT22;60000;51.030;7.024;2022-11-20T01:03:39;3.32;77.55
72128;DHT22;60000;51.030;7.024;2022-11-20T01:06:11;3.34;77.88
72128;DHT22;60000;51.030;7.024;2022-11-20T01:08:37;3.35;77.96
72128;DHT22;60000;51.030;7.024;2022-11-20T01:11:07;3.34;77.85
72128;DHT22;60000;51.030;7.024;2022-11-20T01:13:33;3.34;78.01
72128;DHT22;60000;51.030;7.024;2022-11-20T01:16:33;3.35;77.97
72128;DHT22;60000;51.030;7.024;2022-11-20T01:19:02;3.35;77.75
72128;DHT22;60000;51.030;7.024;2022-11-20T01:21:36;3.35;77.97
72128;DHT22;60000;51.030;7.024;2022-11-20T01:24:03;3.38;78.26
72128;DHT22;60000;51.030;7.024;2022-11-20T01:26:31;3.36;77.90
72128;DHT22;60000;51.030;7.024;2022-11-20T01:28:58;3.32;77.61
72128;DHT22;60000;51.030;7.024;2022-11-20T01:31:24;3.29;77.83
72128;DHT22;60000;51.030;7.024;2022-11-20T01:33:52;3.29;77.92
72128;DHT22;60000;51.030;7.024;2022-11-20T01:36:20;3.31;78.38
72128;DHT22;60000;51.030;7.024;2022-11-20T01:38:46;3.29;78.12
72128;DHT22;60000;51.030;7.024;2022-11-20T01:41:13;3.26;77.98
72128;DHT22;60000;51.030;7.024;2022-11-20T01:44:03;3.26;78.11
72128;DHT22;60000;51.030;7.024;2022-11-20T01:46:31;3.28;78.39
72128;DHT22;60000;51.030;7.024;2022-11-20T01:49:24;3.28;78.34
72128;DHT22;60000;51.030;7.024;2022-11-20T01:51:58;3.24;78.13
72128;DHT22;60000;51.030;7.024;2022-11-20T01:54:36;3.22;78.02
72128;DHT22;60000;51.030;7.024;2022-11-20T01:57:04;3.21;78.29
72128;DHT22;60000;51.030;7.024;2022-11-20T01:59:31;3.19;78.26
72128;DHT22;60000;51.030;7.024;2022-11-20T02:01:56;3.22;78.41
72128;DHT22;60000;51.030;7.024;2022-11-20T02:04:22;3.21;78.48
72128;DHT22;60000;51.030;7.024;2022-11-20T02:06:51;3.19;78.08
72128;DHT22;60000;51.030;7.024;2022-11-20T02:09:18;3.19;78.24
72128;DHT22;60000;51.030;7.024;2022-11-20T02:11:46;3.18;78.25
72128;DHT22;60000;51.030;7.024;2022-11-20T02:14:12;3.18;78.24
72128;DHT22;60000;51.030;7.024;2022-11-20T02:16:42;3.18;78.79
72128;DHT22;60000;51.030;7.024;2022-11-20T02:19:16;3.22;78.96
72128;DHT22;60000;51.030;7.024;2022-11-20T02:22:16;3.25;78.84
72128;DHT22;60000;51.030;7.024;2022-11-20T02:24:43;3.24;78.92
72128;DHT22;60000;51.030;7.024;2022-11-20T02:27:12;3.26;78.75
72128;DHT22;60000;51.030;7.024;2022-11-20T02:32:27;3.26;78.64
72128;DHT22;60000;51.030;7.024;2022-11-20T02:34:53;3.25;78.60
72128;DHT22;60000;51.030;7.024;2022-11-20T02:37:19;3.22;78.23
72128;DHT22;60000;51.030;7.024;2022-11-20T02:39:46;3.22;78.30
72128;DHT22;60000;51.030;7.024;2022-11-20T02:42:12;3.21;78.24
72128;DHT22;60000;51.030;7.024;2022-11-20T02:44:38;3.21;78.36
72128;DHT22;60000;51.030;7.024;2022-11-20T02:47:03;3.21;78.43
72128;DHT22;60000;51.030;7.024;2022-11-20T02:49:28;3.21;78.44
72128;DHT22;60000;51.030;7.024;2022-11-20T02:51:54;3.19;78.52
72128;DHT22;60000;51.030;7.024;2022-11-20T02:54:19;3.16;78.69
72128;DHT22;60000;51.030;7.024;2022-11-20T02:56:44;3.15;78.77
72128;DHT22;60000;51.030;7.024;2022-11-20T02:59:10;3.14;78.87
72128;DHT22;60000;51.030;7.024;2022-11-20T03:01:35;3.14;78.84
72128;DHT22;60000;51.030;7.024;2022-11-20T03:04:01;3.12;78.76
72128;DHT22;60000;51.030;7.024;2022-11-20T03:06:26;3.12;79.05
72128;DHT22;60000;51.030;7.024;2022-11-20T03:08:51;3.11;78.93
72128;DHT22;60000;51.030;7.024;2022-11-20T03:11:17;3.11;78.99
72128;DHT22;60000;51.030;7.024;2022-11-20T03:13:42;3.11;79.37
72128;DHT22;60000;51.030;7.024;2022-11-20T03:16:10;3.14;79.59
72128;DHT22;60000;51.030;7.024;2022-11-20T03:18:36;3.11;79.83
72128;DHT22;60000;51.030;7.024;2022-11-20T03:21:02;3.12;80.01
72128;DHT22;60000;51.030;7.024;2022-11-20T03:23:29;3.14;79.89
72128;DHT22;60000;51.030;7.024;2022-11-20T03:25:55;3.11;79.59
72128;DHT22;60000;51.030;7.024;2022-11-20T03:28:21;3.09;79.69
72128;DHT22;60000;51.030;7.024;2022-11-20T03:30:46;3.09;79.89
72128;DHT22;60000;51.030;7.024;2022-11-20T03:33:11;3.08;79.88
72128;DHT22;60000;51.030;7.024;2022-11-20T03:35:37;3.07;79.87
72128;DHT22;60000;51.030;7.024;2022-11-20T03:38:02;3.08;79.90
72128;DHT22;60000;51.030;7.024;2022-11-20T03:40:27;3.09;80.05
72128;DHT22;60000;51.030;7.024;2022-11-20T03:42:52;3.08;79.97
72128;DHT22;60000;51.030;7.024;2022-11-20T03:45:18;3.08;80.03
72128;DHT22;60000;51.030;7.024;2022-11-20T03:47:44;3.11;80.24
72128;DHT22;60000;51.030;7.024;2022-11-20T03:50:11;3.14;80.49
72128;DHT22;60000;51.030;7.024;2022-11-20T03:52:40;3.12;80.25
72128;DHT22;60000;51.030;7.024;2022-11-20T03:55:07;3.09;79.87
72128;DHT22;60000;51.030;7.024;2022-11-20T03:57:32;3.07;79.76
72128;DHT22;60000;51.030;7.024;2022-11-20T03:59:58;3.08;80.09
72128;DHT22;60000;51.030;7.024;2022-11-20T04:02:23;3.07;80.26
72128;DHT22;60000;51.030;7.024;2022-11-20T04:04:48;3.08;79.99
72128;DHT22;60000;51.030;7.024;2022-11-20T04:07:14;3.07;80.22
72128;DHT22;60000;51.030;7.024;2022-11-20T04:09:39;3.07;80.09
72128;DHT22;60000;51.030;7.024;2022-11-20T04:12:04;3.03;80.37
72128;DHT22;60000;51.030;7.024;2022-11-20T04:14:30;3.03;80.33
72128;DHT22;60000;51.030;7.024;2022-11-20T04:16:55;3.00;80.26
72128;DHT22;60000;51.030;7.024;2022-11-20T04:19:20;2.97;80.27
72128;DHT22;60000;51.030;7.024;2022-11-20T04:21:45;2.94;80.18
72128;DHT22;60000;51.030;7.024;2022-11-20T04:24:11;2.93;80.25
72128;DHT22;60000;51.030;7.024;2022-11-20T04:26:37;2.88;80.50
72128;DHT22;60000;51.030;7.024;2022-11-20T04:29:02;2.90;80.78
72128;DHT22;60000;51.030;7.024;2022-11-20T04:31:32;2.84;80.82
72128;DHT22;60000;51.030;7.024;2022-11-20T04:34:03;2.80;80.83
72128;DHT22;60000;51.030;7.024;2022-11-20T04:36:29;2.79;80.89
72128;DHT22;60000;51.030;7.024;2022-11-20T04:38:57;2.77;81.28
72128;DHT22;60000;51.030;7.024;2022-11-20T04:41:25;2.79;81.52
72128;DHT22;60000;51.030;7.024;2022-11-20T04:43:52;2.79;81.73
72128;DHT22;60000;51.030;7.024;2022-11-20T04:46:19;2.79;81.62
72128;DHT22;60000;51.030;7.024;2022-11-20T04:48:45;2.79;81.78
72128;DHT22;60000;51.030;7.024;2022-11-20T04:51:11;2.81;82.20
72128;DHT22;60000;51.030;7.024;2022-11-20T04:53:37;2.84;82.10
72128;DHT22;60000;51.030;7.024;2022-11-20T04:56:05;2.85;82.27
72128;DHT22;60000;51.030;7.024;2022-11-20T04:58:31;2.85;82.26
72128;DHT22;60000;51.030;7.024;2022-11-20T05:01:07;2.91;82.32
72128;DHT22;60000;51.030;7.024;2022-11-20T05:03:34;2.88;81.98
72128;DHT22;60000;51.030;7.024;2022-11-20T05:06:03;2.91;82.08
72128;DHT22;60000;51.030;7.024;2022-11-20T05:08:29;2.93;82.21
72128;DHT22;60000;51.030;7.024;2022-11-20T05:11:03;2.95;82.36
72128;DHT22;60000;51.030;7.024;2022-11-20T05:13:28;2.98;82.43
72128;DHT22;60000;51.030;7.024;2022-11-20T05:15:54;2.98;82.22
72128;DHT22;60000;51.030;7.024;2022-11-20T05:18:19;2.98;82.09
72128;DHT22;60000;51.030;7.024;2022-11-20T05:20:44;2.98;81.96
72128;DHT22;60000;51.030;7.024;2022-11-20T05:23:10;3.00;81.98
72128;DHT22;60000;51.030;7.024;2022-11-20T05:25:35;2.95;81.91
72128;DHT22;60000;51.030;7.024;2022-11-20T05:28:00;2.97;81.91
72128;DHT22;60000;51.030;7.024;2022-11-20T05:30:26;2.97;82.01
72128;DHT22;60000;51.030;7.024;2022-11-20T05:32:51;2.98;82.04
72128;DHT22;60000;51.030;7.024;2022-11-20T05:35:16;3.01;82.07
72128;DHT22;60000;51.030;7.024;2022-11-20T05:37:41;3.00;81.80
72128;DHT22;60000;51.030;7.024;2022-11-20T05:40:07;3.00;81.75
72128;DHT22;60000;51.030;7.024;2022-11-20T05:42:33;3.00;81.86
72128;DHT22;60000;51.030;7.024;2022-11-20T05:44:59;3.03;81.70
72128;DHT22;60000;51.030;7.024;2022-11-20T05:47:26;3.00;81.70
72128;DHT22;60000;51.030;7.024;2022-11-20T05:49:52;3.01;81.74
72128;DHT22;60000;51.030;7.024;2022-11-20T05:52:18;3.00;81.62
72128;DHT22;60000;51.030;7.024;2022-11-20T05:54:43;3.00;81.59
72128;DHT22;60000;51.030;7.024;2022-11-20T05:57:08;3.00;81.95
72128;DHT22;60000;51.030;7.024;2022-11-20T05:59:34;3.01;82.12
72128;DHT22;60000;51.030;7.024;2022-11-20T06:01:59;2.98;82.01
72128;DHT22;60000;51.030;7.024;2022-11-20T06:04:24;3.01;82.18
72128;DHT22;60000;51.030;7.024;2022-11-20T06:06:49;3.00;82.05
72128;DHT22;60000;51.030;7.024;2022-11-20T06:09:15;2.97;81.92
72128;DHT22;60000;51.030;7.024;2022-11-20T06:11:40;2.95;82.00
72128;DHT22;60000;51.030;7.024;2022-11-20T06:14:05;2.94;81.94
72128;DHT22;60000;51.030;7.024;2022-11-20T06:16:31;2.91;82.01
72128;DHT22;60000;51.030;7.024;2022-11-20T06:18:56;2.91;82.18
72128;DHT22;60000;51.030;7.024;2022-11-20T06:21:22;2.91;82.32
72128;DHT22;60000;51.030;7.024;2022-11-20T06:23:49;2.91;82.54
72128;DHT22;60000;51.030;7.024;2022-11-20T06:26:20;2.88;82.55
72128;DHT22;60000;51.030;7.024;2022-11-20T06:28:46;2.85;82.64
72128;DHT22;60000;51.030;7.024;2022-11-20T06:31:14;2.81;82.65
72128;DHT22;60000;51.030;7.024;2022-11-20T06:33:40;2.79;82.74
72128;DHT22;60000;51.030;7.024;2022-11-20T06:36:05;2.73;82.91
72128;DHT22;60000;51.030;7.024;2022-11-20T06:38:31;2.66;82.89
72128;DHT22;60000;51.030;7.024;2022-11-20T06:40:56;2.61;83.02
72128;DHT22;60000;51.030;7.024;2022-11-20T06:43:22;2.54;83.08
72128;DHT22;60000;51.030;7.024;2022-11-20T06:45:55;2.50;83.20
72128;DHT22;60000;51.030;7.024;2022-11-20T06:48:21;2.43;83.55
72128;DHT22;60000;51.030;7.024;2022-11-20T06:50:46;2.39;83.75
72128;DHT22;60000;51.030;7.024;2022-11-20T06:53:11;2.35;83.88
72128;DHT22;60000;51.030;7.024;2022-11-20T06:55:42;2.32;84.05
72128;DHT22;60000;51.030;7.024;2022-11-20T06:58:07;2.28;84.08
72128;DHT22;60000;51.030;7.024;2022-11-20T07:00:32;2.26;84.31
72128;DHT22;60000;51.030;7.024;2022-11-20T07:02:57;2.21;84.47
72128;DHT22;60000;51.030;7.024;2022-11-20T07:05:23;2.18;84.59
72128;DHT22;60000;51.030;7.024;2022-11-20T07:07:48;2.15;84.78
72128;DHT22;60000;51.030;7.024;2022-11-20T07:10:13;2.09;84.80
72128;DHT22;60000;51.030;7.024;2022-11-20T07:12:38;2.08;84.90
72128;DHT22;60000;51.030;7.024;2022-11-20T07:15:04;2.05;85.15
72128;DHT22;60000;51.030;7.024;2022-11-20T07:17:30;1.99;85.31
72128;DHT22;60000;51.030;7.024;2022-11-20T07:19:55;1.97;85.54
72128;DHT22;60000;51.030;7.024;2022-11-20T07:22:21;1.97;85.74
72128;DHT22;60000;51.030;7.024;2022-11-20T07:24:47;1.94;85.84
72128;DHT22;60000;51.030;7.024;2022-11-20T07:27:12;1.94;86.10
72128;DHT22;60000;51.030;7.024;2022-11-20T07:29:38;1.95;86.48
72128;DHT22;60000;51.030;7.024;2022-11-20T07:32:04;1.97;86.53
72128;DHT22;60000;51.030;7.024;2022-11-20T07:34:29;2.04;86.68
72128;DHT22;60000;51.030;7.024;2022-11-20T07:36:54;2.05;86.65
72128;DHT22;60000;51.030;7.024;2022-11-20T07:39:19;2.08;86.93
72128;DHT22;60000;51.030;7.024;2022-11-20T07:41:45;2.11;86.88
72128;DHT22;60000;51.030;7.024;2022-11-20T07:44:10;2.14;86.85
72128;DHT22;60000;51.030;7.024;2022-11-20T07:46:35;2.15;86.97
72128;DHT22;60000;51.030;7.024;2022-11-20T07:49:01;2.22;86.98
72128;DHT22;60000;51.030;7.024;2022-11-20T07:51:26;2.22;87.17
72128;DHT22;60000;51.030;7.024;2022-11-20T07:53:52;2.30;87.37
72128;DHT22;60000;51.030;7.024;2022-11-20T07:56:18;2.35;87.18
72128;DHT22;60000;51.030;7.024;2022-11-20T07:58:43;2.45;87.43
72128;DHT22;60000;51.030;7.024;2022-11-20T08:01:08;2.47;87.41
72128;DHT22;60000;51.030;7.024;2022-11-20T08:03:34;2.54;87.17
72128;DHT22;60000;51.030;7.024;2022-11-20T08:06:02;2.58;87.17
72128;DHT22;60000;51.030;7.024;2022-11-20T08:08:28;2.64;87.25
72128;DHT22;60000;51.030;7.024;2022-11-20T08:10:54;2.70;87.01
72128;DHT22;60000;51.030;7.024;2022-11-20T08:13:39;2.80;87.20
72128;DHT22;60000;51.030;7.024;2022-11-20T08:16:23;2.83;86.62
72128;DHT22;60000;51.030;7.024;2022-11-20T08:18:48;2.84;86.49
72128;DHT22;60000;51.030;7.024;2022-11-20T08:21:14;2.87;86.37
72128;DHT22;60000;51.030;7.024;2022-11-20T08:23:40;2.85;86.10
72128;DHT22;60000;51.030;7.024;2022-11-20T08:26:05;2.87;86.00
72128;DHT22;60000;51.030;7.024;2022-11-20T08:28:30;2.85;85.72
72128;DHT22;60000;51.030;7.024;2022-11-20T08:31:00;2.88;85.93
72128;DHT22;60000;51.030;7.024;2022-11-20T08:33:26;2.91;85.40
72128;DHT22;60000;51.030;7.024;2022-11-20T08:35:51;2.94;85.41
72128;DHT22;60000;51.030;7.024;2022-11-20T08:38:17;2.94;85.43
72128;DHT22;60000;51.030;7.024;2022-11-20T08:40:43;2.97;85.44
72128;DHT22;60000;51.030;7.024;2022-11-20T08:43:31;3.01;85.26
72128;DHT22;60000;51.030;7.024;2022-11-20T08:45:57;3.05;85.35
72128;DHT22;60000;51.030;7.024;2022-11-20T08:48:22;3.08;85.31
72128;DHT22;60000;51.030;7.024;2022-11-20T08:50:47;3.12;85.54
72128;DHT22;60000;51.030;7.024;2022-11-20T08:53:13;3.16;85.42
72128;DHT22;60000;51.030;7.024;2022-11-20T08:55:38;3.21;85.30
72128;DHT22;60000;51.030;7.024;2022-11-20T08:58:05;3.29;85.26
72128;DHT22;60000;51.030;7.024;2022-11-20T09:00:30;3.31;85.10
72128;DHT22;60000;51.030;7.024;2022-11-20T09:02:55;3.35;84.98
72128;DHT22;60000;51.030;7.024;2022-11-20T09:05:21;3.40;84.98
72128;DHT22;60000;51.030;7.024;2022-11-20T09:07:46;3.42;84.97
72128;DHT22;60000;51.030;7.024;2022-11-20T09:10:11;3.46;85.04
72128;DHT22;60000;51.030;7.024;2022-11-20T09:12:37;3.53;84.80
72128;DHT22;60000;51.030;7.024;2022-11-20T09:15:02;3.52;84.54
72128;DHT22;60000;51.030;7.024;2022-11-20T09:17:27;3.55;84.26
72128;DHT22;60000;51.030;7.024;2022-11-20T09:19:53;3.58;84.40
72128;DHT22;60000;51.030;7.024;2022-11-20T09:22:18;3.63;84.34
72128;DHT22;60000;51.030;7.024;2022-11-20T09:24:43;3.67;84.33
72128;DHT22;60000;51.030;7.024;2022-11-20T09:27:08;3.73;84.45
72128;DHT22;60000;51.030;7.024;2022-11-20T09:29:34;3.82;84.53
72128;DHT22;60000;51.030;7.024;2022-11-20T09:31:59;3.87;84.53
72128;DHT22;60000;51.030;7.024;2022-11-20T09:34:24;3.91;84.08
72128;DHT22;60000;51.030;7.024;2022-11-20T09:36:50;3.94;83.76
72128;DHT22;60000;51.030;7.024;2022-11-20T09:39:15;4.04;84.15
72128;DHT22;60000;51.030;7.024;2022-11-20T09:46:53;4.35;83.02
72128;DHT22;60000;51.030;7.024;2022-11-20T09:49:32;4.38;81.41
72128;DHT22;60000;51.030;7.024;2022-11-20T09:52:16;4.41;81.49
72128;DHT22;60000;51.030;7.024;2022-11-20T09:54:45;4.41;80.39
72128;DHT22;60000;51.030;7.024;2022-11-20T09:57:12;4.45;80.33
72128;DHT22;60000;51.030;7.024;2022-11-20T09:59:52;4.51;80.12
72128;DHT22;60000;51.030;7.024;2022-11-20T10:05:21;4.75;79.58
72128;DHT22;60000;51.030;7.024;2022-11-20T10:10:33;4.94;78.91
72128;DHT22;60000;51.030;7.024;2022-11-20T10:29:47;4.93;77.11
72128;DHT22;60000;51.030;7.024;2022-11-20T10:32:17;4.92;77.18
72128;DHT22;60000;51.030;7.024;2022-11-20T10:37:25;4.86;77.82
72128;DHT22;60000;51.030;7.024;2022-11-20T10:40:20;4.87;77.69
72128;DHT22;60000;51.030;7.024;2022-11-20T10:42:50;4.82;77.78
72128;DHT22;60000;51.030;7.024;2022-11-20T10:47:54;4.79;77.87
72128;DHT22;60000;51.030;7.024;2022-11-20T10:50:21;4.83;78.28
72128;DHT22;60000;51.030;7.024;2022-11-20T10:53:14;4.92;77.48
72128;DHT22;60000;51.030;7.024;2022-11-20T10:55:47;4.93;77.58
72128;DHT22;60000;51.030;7.024;2022-11-20T11:01:14;5.03;77.72
72128;DHT22;60000;51.030;7.024;2022-11-20T11:03:41;5.04;77.87
72128;DHT22;60000;51.030;7.024;2022-11-20T11:06:19;5.12;78.16
72128;DHT22;60000;51.030;7.024;2022-11-20T11:08:47;5.17;78.16
72128;DHT22;60000;51.030;7.024;2022-11-20T11:11:33;5.20;78.16
72128;DHT22;60000;51.030;7.024;2022-11-20T11:14:13;5.23;78.00
72128;DHT22;60000;51.030;7.024;2022-11-20T11:16:53;5.21;77.80
72128;DHT22;60000;51.030;7.024;2022-11-20T11:19:19;5.24;78.17
72128;DHT22;60000;51.030;7.024;2022-11-20T11:21:50;5.27;78.57
72128;DHT22;60000;51.030;7.024;2022-11-20T11:24:36;5.31;78.13
72128;DHT22;60000;51.030;7.024;2022-11-20T11:27:04;5.31;77.89
72128;DHT22;60000;51.030;7.024;2022-11-20T11:29:36;5.33;77.79
72128;DHT22;60000;51.030;7.024;2022-11-20T11:32:05;5.37;77.84
72128;DHT22;60000;51.030;7.024;2022-11-20T11:34:31;5.35;77.81
72128;DHT22;60000;51.030;7.024;2022-11-20T11:36:57;5.33;78.24
72128;DHT22;60000;51.030;7.024;2022-11-20T11:39:23;5.38;78.45
72128;DHT22;60000;51.030;7.024;2022-11-20T11:41:50;5.35;77.99
72128;DHT22;60000;51.030;7.024;2022-11-20T11:47:02;5.34;77.71
72128;DHT22;60000;51.030;7.024;2022-11-20T11:49:28;5.35;77.64
72128;DHT22;60000;51.030;7.024;2022-11-20T11:54:43;5.38;77.87
72128;DHT22;60000;51.030;7.024;2022-11-20T11:57:16;5.40;77.65
72128;DHT22;60000;51.030;7.024;2022-11-20T11:59:54;5.43;77.81
72128;DHT22;60000;51.030;7.024;2022-11-20T12:07:41;5.56;77.45
72128;DHT22;60000;51.030;7.024;2022-11-20T12:10:20;5.59;77.28
72128;DHT22;60000;51.030;7.024;2022-11-20T12:12:58;5.52;77.43
72128;DHT22;60000;51.030;7.024;2022-11-20T12:15:29;5.51;77.70
72128;DHT22;60000;51.030;7.024;2022-11-20T12:17:55;5.51;77.62
72128;DHT22;60000;51.030;7.024;2022-11-20T12:20:24;5.50;77.66
72128;DHT22;60000;51.030;7.024;2022-11-20T12:25:24;5.52;77.91
72128;DHT22;60000;51.030;7.024;2022-11-20T12:28:02;5.52;77.74
72128;DHT22;60000;51.030;7.024;2022-11-20T12:30:32;5.56;78.22
72128;DHT22;60000;51.030;7.024;2022-11-20T12:42:01;5.58;77.72
72128;DHT22;60000;51.030;7.024;2022-11-20T12:59:07;5.55;78.38
72128;DHT22;60000;51.030;7.024;2022-11-20T13:01:47;5.58;78.68
72128;DHT22;60000;51.030;7.024;2022-11-20T13:04:39;5.64;78.95
72128;DHT22;60000;51.030;7.024;2022-11-20T13:07:10;5.64;78.70
72128;DHT22;60000;51.030;7.024;2022-11-20T13:09:43;5.66;78.87
72128;DHT22;60000;51.030;7.024;2022-11-20T13:12:29;5.75;78.57
72128;DHT22;60000;51.030;7.024;2022-11-20T13:15:08;5.81;78.60
72128;DHT22;60000;51.030;7.024;2022-11-20T13:17:57;5.86;78.70
72128;DHT22;60000;51.030;7.024;2022-11-20T13:20:23;5.93;78.67
72128;DHT22;60000;51.030;7.024;2022-11-20T13:22:51;5.98;78.61
72128;DHT22;60000;51.030;7.024;2022-11-20T13:25:30;6.01;78.50
72128;DHT22;60000;51.030;7.024;2022-11-20T13:27:58;6.03;78.38
72128;DHT22;60000;51.030;7.024;2022-11-20T13:30:25;6.03;77.75
72128;DHT22;60000;51.030;7.024;2022-11-20T13:33:25;5.99;77.67
72128;DHT22;60000;51.030;7.024;2022-11-20T13:36:22;5.98;77.99
72128;DHT22;60000;51.030;7.024;2022-11-20T13:38:50;5.99;77.70
72128;DHT22;60000;51.030;7.024;2022-11-20T13:41:34;6.01;77.97
72128;DHT22;60000;51.030;7.024;2022-11-20T13:44:09;6.02;77.79
72128;DHT22;60000;51.030;7.024;2022-11-20T13:46:41;6.06;77.91
72128;DHT22;60000;51.030;7.024;2022-11-20T13:49:14;6.07;77.58
72128;DHT22;60000;51.030;7.024;2022-11-20T13:51:54;6.06;77.49
72128;DHT22;60000;51.030;7.024;2022-11-20T14:02:15;6.13;77.98
72128;DHT22;60000;51.030;7.024;2022-11-20T14:04:44;6.12;77.67
72128;DHT22;60000;51.030;7.024;2022-11-20T14:07:11;6.13;77.80
72128;DHT22;60000;51.030;7.024;2022-11-20T14:09:36;6.13;77.78
72128;DHT22;60000;51.030;7.024;2022-11-20T14:12:03;6.10;77.99
72128;DHT22;60000;51.030;7.024;2022-11-20T14:14:30;6.10;78.01
72128;DHT22;60000;51.030;7.024;2022-11-20T14:17:50;6.09;78.01
72128;DHT22;60000;51.030;7.024;2022-11-20T14:19:51;6.12;77.85
72128;DHT22;60000;51.030;7.024;2022-11-20T14:22:25;6.12;78.14
72128;DHT22;60000;51.030;7.024;2022-11-20T14:25:22;6.12;78.42
72128;DHT22;60000;51.030;7.024;2022-11-20T14:27:52;6.06;78.39
72128;DHT22;60000;51.030;7.024;2022-11-20T14:30:20;6.05;78.46
72128;DHT22;60000;51.030;7.024;2022-11-20T14:32:46;6.09;78.69
72128;DHT22;60000;51.030;7.024;2022-11-20T14:37:49;6.07;79.03
72128;DHT22;60000;51.030;7.024;2022-11-20T14:42:47;6.05;79.09
72128;DHT22;60000;51.030;7.024;2022-11-20T14:45:13;6.07;79.24
72128;DHT22;60000;51.030;7.024;2022-11-20T14:47:39;6.07;79.28
72128;DHT22;60000;51.030;7.024;2022-11-20T14:50:13;6.05;79.27
72128;DHT22;60000;51.030;7.024;2022-11-20T14:52:50;6.06;79.26
72128;DHT22;60000;51.030;7.024;2022-11-20T14:55:34;6.06;79.52
72128;DHT22;60000;51.030;7.024;2022-11-20T14:58:04;6.06;79.53
72128;DHT22;60000;51.030;7.024;2022-11-20T15:00:30;6.05;79.64
72128;DHT22;60000;51.030;7.024;2022-11-20T15:02:56;6.03;79.80
72128;DHT22;60000;51.030;7.024;2022-11-20T15:05:25;6.03;79.94
72128;DHT22;60000;51.030;7.024;2022-11-20T15:08:05;6.01;80.03
72128;DHT22;60000;51.030;7.024;2022-11-20T15:10:31;6.02;80.07
72128;DHT22;60000;51.030;7.024;2022-11-20T15:13:02;6.01;80.16
72128;DHT22;60000;51.030;7.024;2022-11-20T15:15:35;6.01;80.23
72128;DHT22;60000;51.030;7.024;2022-11-20T15:18:01;5.99;80.31
72128;DHT22;60000;51.030;7.024;2022-11-20T15:20:29;6.02;80.41
72128;DHT22;60000;51.030;7.024;2022-11-20T15:22:55;6.01;80.56
72128;DHT22;60000;51.030;7.024;2022-11-20T15:25:20;6.01;80.68
72128;DHT22;60000;51.030;7.024;2022-11-20T15:27:48;6.01;80.94
72128;DHT22;60000;51.030;7.024;2022-11-20T15:30:18;6.01;81.47
72128;DHT22;60000;51.030;7.024;2022-11-20T15:32:44;6.01;81.78
72128;DHT22;60000;51.030;7.024;2022-11-20T15:35:10;5.99;82.40
72128;DHT22;60000;51.030;7.024;2022-11-20T15:37:36;5.98;83.04
72128;DHT22;60000;51.030;7.024;2022-11-20T15:40:03;5.93;83.50
72128;DHT22;60000;51.030;7.024;2022-11-20T15:42:28;5.88;84.22
72128;DHT22;60000;51.030;7.024;2022-11-20T15:44:53;5.89;84.82
72128;DHT22;60000;51.030;7.024;2022-11-20T15:47:22;5.85;84.97
72128;DHT22;60000;51.030;7.024;2022-11-20T15:49:50;5.85;85.37
72128;DHT22;60000;51.030;7.024;2022-11-20T15:52:15;5.75;85.67
72128;DHT22;60000;51.030;7.024;2022-11-20T15:54:41;5.73;86.14
72128;DHT22;60000;51.030;7.024;2022-11-20T15:57:06;5.72;86.60
72128;DHT22;60000;51.030;7.024;2022-11-20T15:59:32;5.68;87.13
72128;DHT22;60000;51.030;7.024;2022-11-20T16:01:57;5.71;87.47
72128;DHT22;60000;51.030;7.024;2022-11-20T16:04:22;5.68;87.74
72128;DHT22;60000;51.030;7.024;2022-11-20T16:06:48;5.64;88.19
72128;DHT22;60000;51.030;7.024;2022-11-20T16:09:13;5.66;88.33
72128;DHT22;60000;51.030;7.024;2022-11-20T16:11:38;5.64;88.77
72128;DHT22;60000;51.030;7.024;2022-11-20T16:14:04;5.64;89.04
72128;DHT22;60000;51.030;7.024;2022-11-20T16:16:49;5.59;89.41
72128;DHT22;60000;51.030;7.024;2022-11-20T16:19:15;5.62;89.63
72128;DHT22;60000;51.030;7.024;2022-11-20T16:21:41;5.61;89.88
72128;DHT22;60000;51.030;7.024;2022-11-20T16:24:08;5.62;90.11
72128;DHT22;60000;51.030;7.024;2022-11-20T16:26:35;5.65;90.28
72128;DHT22;60000;51.030;7.024;2022-11-20T16:29:02;5.66;90.50
72128;DHT22;60000;51.030;7.024;2022-11-20T16:31:28;5.68;90.67
72128;DHT22;60000;51.030;7.024;2022-11-20T16:33:55;5.66;90.85
72128;DHT22;60000;51.030;7.024;2022-11-20T16:36:23;5.69;90.98
72128;DHT22;60000;51.030;7.024;2022-11-20T16:38:54;5.71;91.12
72128;DHT22;60000;51.030;7.024;2022-11-20T16:41:19;5.75;91.21
72128;DHT22;60000;51.030;7.024;2022-11-20T16:43:55;5.72;91.33
72128;DHT22;60000;51.030;7.024;2022-11-20T16:46:26;5.73;91.56
72128;DHT22;60000;51.030;7.024;2022-11-20T16:51:18;5.76;91.82
72128;DHT22;60000;51.030;7.024;2022-11-20T16:53:44;5.76;91.96
72128;DHT22;60000;51.030;7.024;2022-11-20T16:56:14;5.81;92.11
72128;DHT22;60000;51.030;7.024;2022-11-20T16:58:49;5.81;92.20
72128;DHT22;60000;51.030;7.024;2022-11-20T17:01:29;5.76;92.37
72128;DHT22;60000;51.030;7.024;2022-11-20T17:04:11;5.81;92.39
72128;DHT22;60000;51.030;7.024;2022-11-20T17:06:41;5.85;92.47
72128;DHT22;60000;51.030;7.024;2022-11-20T17:09:17;5.82;92.51
72128;DHT22;60000;51.030;7.024;2022-11-20T17:11:51;5.83;92.58
72128;DHT22;60000;51.030;7.024;2022-11-20T17:14:22;5.82;92.59
72128;DHT22;60000;51.030;7.024;2022-11-20T17:16:51;5.85;92.59
72128;DHT22;60000;51.030;7.024;2022-11-20T17:19:22;5.89;92.65
72128;DHT22;60000;51.030;7.024;2022-11-20T17:21:50;5.88;92.66
72128;DHT22;60000;51.030;7.024;2022-11-20T17:24:16;5.91;92.65
72128;DHT22;60000;51.030;7.024;2022-11-20T17:26:42;5.92;92.67